createdAt,value
2022-10-09T00:00:38.138Z,0.00
2022-10-09T00:01:38.120Z,0.00
2022-10-09T00:02:38.228Z,0.00
2022-10-09T00:03:38.147Z,0.00
2022-10-09T00:04:38.104Z,0.00
2022-10-09T00:05:38.392Z,0.00
2022-10-09T00:06:38.111Z,0.00
2022-10-09T00:07:38.046Z,0.00
2022-10-09T00:08:38.023Z,0.00
2022-10-09T00:09:38.069Z,0.00
2022-10-09T00:10:38.005Z,0.00
2022-10-09T00:11:38.021Z,0.00
2022-10-09T00:12:37.978Z,0.00
2022-10-09T00:13:37.987Z,0.00
2022-10-09T00:14:37.952Z,0.00
2022-10-09T00:15:38.030Z,0.00
2022-10-09T00:16:38.022Z,0.00
2022-10-09T00:17:37.950Z,0.00
2022-10-09T00:18:37.939Z,0.00
2022-10-09T00:19:37.929Z,0.00
2022-10-09T00:20:38.078Z,0.00
2022-10-09T00:21:38.250Z,0.00
2022-10-09T00:22:37.888Z,0.00
2022-10-09T00:23:37.926Z,0.00
2022-10-09T00:24:37.886Z,0.00
2022-10-09T00:25:37.881Z,0.00
2022-10-09T00:26:37.879Z,0.00
2022-10-09T00:27:37.898Z,0.00
2022-10-09T00:28:38.952Z,0.00
2022-10-09T00:29:37.780Z,0.00
2022-10-09T00:30:37.886Z,0.00
2022-10-09T00:31:37.827Z,0.00
2022-10-09T00:32:37.782Z,0.00
2022-10-09T00:33:37.805Z,0.00
2022-10-09T00:34:37.735Z,0.00
2022-10-09T00:35:37.729Z,0.00
2022-10-09T00:36:37.735Z,0.00
2022-10-09T00:37:37.703Z,0.00
2022-10-09T00:38:37.707Z,0.00
2022-10-09T00:39:37.731Z,0.00
2022-10-09T00:40:37.920Z,0.00
2022-10-09T00:41:37.695Z,0.00
2022-10-09T00:42:38.822Z,0.00
2022-10-09T00:43:38.023Z,0.00
2022-10-09T00:44:38.450Z,0.00
2022-10-09T00:45:38.048Z,0.00
2022-10-09T00:46:38.116Z,0.00
2022-10-09T00:47:37.868Z,0.00
2022-10-09T00:48:38.061Z,0.00
2022-10-09T00:49:37.876Z,0.00
2022-10-09T00:50:37.620Z,0.00
2022-10-09T00:51:37.775Z,0.00
2022-10-09T00:52:37.762Z,0.00
2022-10-09T00:53:37.595Z,0.00
2022-10-09T00:54:37.547Z,0.00
2022-10-09T00:55:37.537Z,0.00
2022-10-09T00:56:37.791Z,0.00
2022-10-09T00:57:37.608Z,0.00
2022-10-09T00:58:37.860Z,0.00
2022-10-09T00:59:37.611Z,0.00
2022-10-09T01:00:37.558Z,0.00
2022-10-09T01:01:37.532Z,0.00
2022-10-09T01:02:37.591Z,0.00
2022-10-09T01:03:38.111Z,0.00
2022-10-09T01:04:37.564Z,0.00
2022-10-09T01:05:37.549Z,0.00
2022-10-09T01:06:37.758Z,0.00
2022-10-09T01:07:37.432Z,0.00
2022-10-09T01:08:37.396Z,0.00
2022-10-09T01:09:37.483Z,0.00
2022-10-09T01:10:37.516Z,0.00
2022-10-09T01:11:37.521Z,0.00
2022-10-09T01:12:38.453Z,0.00
2022-10-09T01:13:37.568Z,0.00
2022-10-09T01:14:37.758Z,0.00
2022-10-09T01:15:37.328Z,0.00
2022-10-09T01:16:37.313Z,0.00
2022-10-09T01:17:37.254Z,0.00
2022-10-09T01:18:37.251Z,0.00
2022-10-09T01:19:37.252Z,0.00
2022-10-09T01:20:37.214Z,0.00
2022-10-09T01:21:37.289Z,0.00
2022-10-09T01:22:37.237Z,0.00
2022-10-09T01:23:37.225Z,0.00
2022-10-09T01:24:37.197Z,0.00
2022-10-09T01:25:37.163Z,0.00
2022-10-09T01:26:37.210Z,0.00
2022-10-09T01:27:37.320Z,0.00
2022-10-09T01:28:37.345Z,0.00
2022-10-09T01:29:37.297Z,0.00
2022-10-09T01:30:37.206Z,0.00
2022-10-09T01:31:37.110Z,0.00
2022-10-09T01:32:37.096Z,0.00
2022-10-09T01:33:37.149Z,0.00
2022-10-09T01:34:37.112Z,0.00
2022-10-09T01:35:37.143Z,0.00
2022-10-09T01:36:37.107Z,0.00
2022-10-09T01:37:37.028Z,0.00
2022-10-09T01:38:37.014Z,0.00
2022-10-09T01:39:37.073Z,0.00
2022-10-09T01:40:37.030Z,0.00
2022-10-09T01:41:36.992Z,0.00
2022-10-09T01:42:36.978Z,0.00
2022-10-09T01:43:36.969Z,0.00
2022-10-09T01:44:36.957Z,0.00
2022-10-09T01:45:36.978Z,0.00
2022-10-09T01:46:36.951Z,0.00
2022-10-09T01:47:37.918Z,0.00
2022-10-09T01:48:36.911Z,0.00
2022-10-09T01:49:36.894Z,0.00
2022-10-09T01:50:36.897Z,0.00
2022-10-09T01:51:36.945Z,0.00
2022-10-09T01:52:40.953Z,0.00
2022-10-09T01:53:36.846Z,0.00
2022-10-09T01:54:36.844Z,0.00
2022-10-09T01:55:36.829Z,0.00
2022-10-09T01:56:36.840Z,0.00
2022-10-09T01:57:36.854Z,0.00
2022-10-09T01:58:36.819Z,0.00
2022-10-09T01:59:36.803Z,0.00
2022-10-09T02:00:36.808Z,0.00
2022-10-09T02:01:36.882Z,0.00
2022-10-09T02:02:36.863Z,0.00
2022-10-09T02:03:36.884Z,0.00
2022-10-09T02:04:36.757Z,0.00
2022-10-09T02:05:36.832Z,0.00
2022-10-09T02:06:36.701Z,0.00
2022-10-09T02:07:36.699Z,0.00
2022-10-09T02:08:36.724Z,0.00
2022-10-09T02:09:36.777Z,0.00
2022-10-09T02:10:36.676Z,0.00
2022-10-09T02:11:37.404Z,0.00
2022-10-09T02:12:36.646Z,0.00
2022-10-09T02:13:37.562Z,0.00
2022-10-09T02:14:36.746Z,0.00
2022-10-09T02:15:36.824Z,0.00
2022-10-09T02:16:37.523Z,0.00
2022-10-09T02:17:36.589Z,0.00
2022-10-09T02:18:36.571Z,0.00
2022-10-09T02:19:36.579Z,0.00
2022-10-09T02:20:36.567Z,0.00
2022-10-09T02:21:36.607Z,0.00
2022-10-09T02:22:36.531Z,0.00
2022-10-09T02:23:36.530Z,0.00
2022-10-09T02:24:36.501Z,0.00
2022-10-09T02:25:36.504Z,0.00
2022-10-09T02:26:36.510Z,0.00
2022-10-09T02:27:36.576Z,0.00
2022-10-09T02:28:36.521Z,0.00
2022-10-09T02:29:36.454Z,0.00
2022-10-09T02:30:36.438Z,0.00
2022-10-09T02:31:36.486Z,0.00
2022-10-09T02:32:36.467Z,0.00
2022-10-09T02:33:36.563Z,0.00
2022-10-09T02:34:36.532Z,0.00
2022-10-09T02:35:36.471Z,0.00
2022-10-09T02:36:36.416Z,0.00
2022-10-09T02:37:36.403Z,0.00
2022-10-09T02:38:36.363Z,0.00
2022-10-09T02:39:36.460Z,0.00
2022-10-09T02:40:36.388Z,0.00
2022-10-09T02:41:36.340Z,0.00
2022-10-09T02:42:36.311Z,0.00
2022-10-09T02:43:36.292Z,0.00
2022-10-09T02:44:36.273Z,0.00
2022-10-09T02:45:36.395Z,0.00
2022-10-09T02:46:36.295Z,0.00
2022-10-09T02:47:36.277Z,0.00
2022-10-09T02:48:36.234Z,0.00
2022-10-09T02:49:36.243Z,0.00
2022-10-09T02:50:36.280Z,0.00
2022-10-09T02:51:36.252Z,0.00
2022-10-09T02:52:36.261Z,0.00
2022-10-09T02:53:36.393Z,0.00
2022-10-09T02:54:36.220Z,0.00
2022-10-09T02:55:36.544Z,0.00
2022-10-09T02:56:38.998Z,0.00
2022-10-09T02:57:36.331Z,0.00
2022-10-09T02:58:36.172Z,0.00
2022-10-09T02:59:36.357Z,0.00
2022-10-09T03:00:36.108Z,0.00
2022-10-09T03:01:36.323Z,0.00
2022-10-09T03:02:36.261Z,0.00
2022-10-09T03:03:36.402Z,0.00
2022-10-09T03:04:36.353Z,0.00
2022-10-09T03:05:36.166Z,0.00
2022-10-09T03:06:36.306Z,0.00
2022-10-09T03:07:36.254Z,0.00
2022-10-09T03:08:36.227Z,0.00
2022-10-09T03:09:36.239Z,0.00
2022-10-09T03:10:36.070Z,0.00
2022-10-09T03:11:36.254Z,0.00
2022-10-09T03:12:36.279Z,0.00
2022-10-09T03:13:36.013Z,0.00
2022-10-09T03:14:36.006Z,0.00
2022-10-09T03:15:36.219Z,0.00
2022-10-09T03:16:36.134Z,0.00
2022-10-09T03:17:36.422Z,0.00
2022-10-09T03:18:37.009Z,0.00
2022-10-09T03:19:35.894Z,0.00
2022-10-09T03:20:35.943Z,0.00
2022-10-09T03:21:35.997Z,0.00
2022-10-09T03:22:36.000Z,0.00
2022-10-09T03:23:36.102Z,0.00
2022-10-09T03:24:35.906Z,0.00
2022-10-09T03:25:36.084Z,0.00
2022-10-09T03:26:35.856Z,0.00
2022-10-09T03:27:36.035Z,0.00
2022-10-09T03:28:36.193Z,0.00
2022-10-09T03:29:35.983Z,0.00
2022-10-09T03:30:35.981Z,0.00
2022-10-09T03:31:53.041Z,0.00
2022-10-09T03:32:35.961Z,0.00
2022-10-09T03:33:35.880Z,0.00
2022-10-09T03:34:36.003Z,0.00
2022-10-09T03:35:35.798Z,0.00
2022-10-09T03:36:36.137Z,0.00
2022-10-09T03:37:35.836Z,0.00
2022-10-09T03:38:35.698Z,0.00
2022-10-09T03:39:36.176Z,0.00
2022-10-09T03:40:35.919Z,0.00
2022-10-09T03:41:35.892Z,0.00
2022-10-09T03:42:35.847Z,0.00
2022-10-09T03:43:35.958Z,0.00
2022-10-09T03:44:36.023Z,0.00
2022-10-09T03:45:35.902Z,0.00
2022-10-09T03:46:35.952Z,0.00
2022-10-09T03:47:35.698Z,0.00
2022-10-09T03:48:35.836Z,0.00
2022-10-09T03:49:35.639Z,0.00
2022-10-09T03:50:35.695Z,0.00
2022-10-09T03:51:35.849Z,0.00
2022-10-09T03:52:35.729Z,0.00
2022-10-09T03:53:35.717Z,0.00
2022-10-09T03:54:35.598Z,0.00
2022-10-09T03:55:35.565Z,0.00
2022-10-09T03:56:35.894Z,0.00
2022-10-09T03:57:35.689Z,0.00
2022-10-09T03:58:35.471Z,0.00
2022-10-09T03:59:35.464Z,0.00
2022-10-09T04:00:35.963Z,0.00
2022-10-09T04:01:35.415Z,0.00
2022-10-09T04:02:35.522Z,0.00
2022-10-09T04:03:35.693Z,0.00
2022-10-09T04:04:35.773Z,0.00
2022-10-09T04:05:35.692Z,0.00
2022-10-09T04:06:35.966Z,0.00
2022-10-09T04:07:35.969Z,0.00
2022-10-09T04:08:35.717Z,0.00
2022-10-09T04:09:35.778Z,0.00
2022-10-09T04:10:36.343Z,0.00
2022-10-09T04:11:35.819Z,0.00
2022-10-09T04:12:35.807Z,0.00
2022-10-09T04:13:35.529Z,0.00
2022-10-09T04:14:35.987Z,0.00
2022-10-09T04:15:35.541Z,0.00
2022-10-09T04:16:35.690Z,0.00
2022-10-09T04:17:35.400Z,0.00
2022-10-09T04:18:35.502Z,0.00
2022-10-09T04:19:35.760Z,0.00
2022-10-09T04:20:35.464Z,0.00
2022-10-09T04:21:35.456Z,0.00
2022-10-09T04:22:38.077Z,0.00
2022-10-09T04:23:35.340Z,0.00
2022-10-09T04:24:35.406Z,0.00
2022-10-09T04:25:35.459Z,0.00
2022-10-09T04:26:35.284Z,0.00
2022-10-09T04:27:35.440Z,0.00
2022-10-09T04:28:35.296Z,0.00
2022-10-09T04:29:35.162Z,0.00
2022-10-09T04:30:35.350Z,0.00
2022-10-09T04:31:35.366Z,0.00
2022-10-09T04:32:35.557Z,0.00
2022-10-09T04:33:35.442Z,0.00
2022-10-09T04:34:35.254Z,0.00
2022-10-09T04:35:35.401Z,0.00
2022-10-09T04:36:35.202Z,0.00
2022-10-09T04:37:35.329Z,0.00
2022-10-09T04:38:35.153Z,0.00
2022-10-09T04:39:35.275Z,0.00
2022-10-09T04:40:35.561Z,0.00
2022-10-09T04:41:38.344Z,0.00
2022-10-09T04:42:35.249Z,0.00
2022-10-09T04:43:35.003Z,0.00
2022-10-09T04:44:35.420Z,0.00
2022-10-09T04:45:35.305Z,0.00
2022-10-09T04:46:35.303Z,0.00
2022-10-09T04:47:35.330Z,0.00
2022-10-09T04:48:35.273Z,0.00
2022-10-09T04:49:34.989Z,0.00
2022-10-09T04:50:35.053Z,0.00
2022-10-09T04:51:35.092Z,0.00
2022-10-09T04:52:35.152Z,0.00
2022-10-09T04:53:35.074Z,0.00
2022-10-09T04:54:34.838Z,0.00
2022-10-09T04:55:36.135Z,0.00
2022-10-09T04:56:35.013Z,0.00
2022-10-09T04:57:34.950Z,0.00
2022-10-09T04:58:35.022Z,0.00
2022-10-09T04:59:34.782Z,0.00
2022-10-09T05:00:34.843Z,0.00
2022-10-09T05:01:38.291Z,0.00
2022-10-09T05:02:34.793Z,0.00
2022-10-09T05:03:34.757Z,0.00
2022-10-09T05:04:34.753Z,0.00
2022-10-09T05:05:34.736Z,0.00
2022-10-09T05:06:34.743Z,0.00
2022-10-09T05:07:34.990Z,0.00
2022-10-09T05:08:34.976Z,0.00
2022-10-09T05:09:34.720Z,0.00
2022-10-09T05:10:34.880Z,0.00
2022-10-09T05:11:37.172Z,0.00
2022-10-09T05:12:34.678Z,0.00
2022-10-09T05:13:34.736Z,0.00
2022-10-09T05:14:34.850Z,0.00
2022-10-09T05:15:35.020Z,0.00
2022-10-09T05:16:44.995Z,0.00
2022-10-09T05:17:34.665Z,0.00
2022-10-09T05:18:34.571Z,0.00
2022-10-09T05:19:34.540Z,0.00
2022-10-09T05:20:34.535Z,0.00
2022-10-09T05:21:34.595Z,0.00
2022-10-09T05:22:34.521Z,0.00
2022-10-09T05:23:34.513Z,0.00
2022-10-09T05:24:34.593Z,0.00
2022-10-09T05:25:34.543Z,0.00
2022-10-09T05:26:34.491Z,0.00
2022-10-09T05:27:34.705Z,0.00
2022-10-09T05:28:40.796Z,0.00
2022-10-09T05:29:40.733Z,0.00
2022-10-09T05:30:40.696Z,0.00
2022-10-09T05:31:34.504Z,0.00
2022-10-09T05:32:34.403Z,0.00
2022-10-09T05:33:34.441Z,0.00
2022-10-09T05:34:34.385Z,0.00
2022-10-09T05:35:34.410Z,0.00
2022-10-09T05:36:34.347Z,0.00
2022-10-09T05:37:34.344Z,5.62
2022-10-09T05:38:34.440Z,5.62
2022-10-09T05:39:34.475Z,5.62
2022-10-09T05:40:34.327Z,5.62
2022-10-09T05:41:34.416Z,5.62
2022-10-09T05:42:34.288Z,5.62
2022-10-09T05:43:34.302Z,5.62
2022-10-09T05:44:34.305Z,5.62
2022-10-09T05:45:34.365Z,11.25
2022-10-09T05:46:34.947Z,11.25
2022-10-09T05:47:34.228Z,11.25
2022-10-09T05:48:34.218Z,11.25
2022-10-09T05:49:34.239Z,11.25
2022-10-09T05:50:34.248Z,16.88
2022-10-09T05:51:34.245Z,16.88
2022-10-09T05:52:34.184Z,16.88
2022-10-09T05:53:34.211Z,16.88
2022-10-09T05:54:34.163Z,22.50
2022-10-09T05:55:34.152Z,22.50
2022-10-09T05:56:34.146Z,22.50
2022-10-09T05:57:34.198Z,28.12
2022-10-09T05:58:34.156Z,28.12
2022-10-09T05:59:34.342Z,28.12
2022-10-09T06:00:34.199Z,28.12
2022-10-09T06:01:34.201Z,33.75
2022-10-09T06:02:34.210Z,33.75
2022-10-09T06:03:34.210Z,33.75
2022-10-09T06:04:34.097Z,39.38
2022-10-09T06:05:34.055Z,39.38
2022-10-09T06:06:34.076Z,39.38
2022-10-09T06:07:34.058Z,45.00
2022-10-09T06:08:34.026Z,45.00
2022-10-09T06:09:34.073Z,45.00
2022-10-09T06:10:34.036Z,50.62
2022-10-09T06:11:34.028Z,50.62
2022-10-09T06:12:34.020Z,50.62
2022-10-09T06:13:33.938Z,56.25
2022-10-09T06:14:33.940Z,56.25
2022-10-09T06:15:33.966Z,56.25
2022-10-09T06:16:34.020Z,61.88
2022-10-09T06:17:33.912Z,61.88
2022-10-09T06:18:34.238Z,61.88
2022-10-09T06:19:33.880Z,67.50
2022-10-09T06:20:33.869Z,67.50
2022-10-09T06:21:33.949Z,67.50
2022-10-09T06:22:33.897Z,73.12
2022-10-09T06:23:33.881Z,73.12
2022-10-09T06:24:33.897Z,73.12
2022-10-09T06:25:33.812Z,78.75
2022-10-09T06:26:33.819Z,78.75
2022-10-09T06:27:33.837Z,78.75
2022-10-09T06:28:33.905Z,78.75
2022-10-09T06:29:33.816Z,84.38
2022-10-09T06:30:38.432Z,84.38
2022-10-09T06:31:33.846Z,84.38
2022-10-09T06:32:33.750Z,90.00
2022-10-09T06:33:33.780Z,90.00
2022-10-09T06:34:33.722Z,90.00
2022-10-09T06:35:33.724Z,90.00
2022-10-09T06:36:33.702Z,95.62
2022-10-09T06:37:33.667Z,95.62
2022-10-09T06:38:33.663Z,95.62
2022-10-09T06:39:33.780Z,95.62
2022-10-09T06:40:33.661Z,101.25
2022-10-09T06:41:33.671Z,101.25
2022-10-09T06:42:33.732Z,101.25
2022-10-09T06:43:33.710Z,101.25
2022-10-09T06:44:33.598Z,101.25
2022-10-09T06:45:33.720Z,106.88
2022-10-09T06:46:33.717Z,106.88
2022-10-09T06:47:33.622Z,106.88
2022-10-09T06:48:33.654Z,106.88
2022-10-09T06:49:33.555Z,112.50
2022-10-09T06:50:33.616Z,112.50
2022-10-09T06:51:33.571Z,112.50
2022-10-09T06:52:33.542Z,112.50
2022-10-09T06:53:33.571Z,112.50
2022-10-09T06:54:34.122Z,118.12
2022-10-09T06:55:33.490Z,118.12
2022-10-09T06:56:33.500Z,118.12
2022-10-09T06:57:33.533Z,118.12
2022-10-09T06:58:33.447Z,118.12
2022-10-09T06:59:33.493Z,118.12
2022-10-09T07:00:33.483Z,123.75
2022-10-09T07:01:33.489Z,123.75
2022-10-09T07:02:33.481Z,123.75
2022-10-09T07:03:33.471Z,123.75
2022-10-09T07:04:33.457Z,123.75
2022-10-09T07:05:33.376Z,123.75
2022-10-09T07:06:33.357Z,129.38
2022-10-09T07:07:33.429Z,129.38
2022-10-09T07:08:33.676Z,129.38
2022-10-09T07:09:33.708Z,135.00
2022-10-09T07:10:33.346Z,135.00
2022-10-09T07:11:33.315Z,135.00
2022-10-09T07:12:33.354Z,135.00
2022-10-09T07:13:33.331Z,135.00
2022-10-09T07:14:33.324Z,135.00
2022-10-09T07:15:33.420Z,140.62
2022-10-09T07:16:33.244Z,140.62
2022-10-09T07:17:33.243Z,140.62
2022-10-09T07:18:33.248Z,140.62
2022-10-09T07:19:33.238Z,140.62
2022-10-09T07:20:33.226Z,140.62
2022-10-09T07:21:33.238Z,140.62
2022-10-09T07:22:33.197Z,146.25
2022-10-09T07:23:33.257Z,146.25
2022-10-09T07:24:33.148Z,146.25
2022-10-09T07:25:33.164Z,146.25
2022-10-09T07:26:33.170Z,146.25
2022-10-09T07:27:33.260Z,146.25
2022-10-09T07:28:33.144Z,146.25
2022-10-09T07:29:33.142Z,146.25
2022-10-09T07:30:33.144Z,146.25
2022-10-09T07:31:33.086Z,146.25
2022-10-09T07:32:33.063Z,151.88
2022-10-09T07:33:33.294Z,151.88
2022-10-09T07:34:33.090Z,151.88
2022-10-09T07:35:33.058Z,151.88
2022-10-09T07:36:33.020Z,151.88
2022-10-09T07:37:33.002Z,151.88
2022-10-09T07:38:33.050Z,151.88
2022-10-09T07:39:33.213Z,151.88
2022-10-09T07:40:33.203Z,151.88
2022-10-09T07:41:33.099Z,151.88
2022-10-09T07:42:34.000Z,151.88
2022-10-09T07:43:33.021Z,151.88
2022-10-09T07:44:32.958Z,151.88
2022-10-09T07:45:33.129Z,151.88
2022-10-09T07:46:34.131Z,151.88
2022-10-09T07:47:34.390Z,151.88
2022-10-09T07:48:33.049Z,157.50
2022-10-09T07:49:32.924Z,157.50
2022-10-09T07:50:32.941Z,157.50
2022-10-09T07:51:32.949Z,157.50
2022-10-09T07:52:32.855Z,157.50
2022-10-09T07:53:35.940Z,157.50
2022-10-09T07:54:32.866Z,157.50
2022-10-09T07:55:32.886Z,157.50
2022-10-09T07:56:32.833Z,157.50
2022-10-09T07:57:32.879Z,157.50
2022-10-09T07:58:32.880Z,157.50
2022-10-09T07:59:32.854Z,163.12
2022-10-09T08:00:33.486Z,163.12
2022-10-09T08:01:32.880Z,163.12
2022-10-09T08:02:32.816Z,163.12
2022-10-09T08:03:32.943Z,163.12
2022-10-09T08:04:32.799Z,163.12
2022-10-09T08:05:32.703Z,163.12
2022-10-09T08:06:32.713Z,163.12
2022-10-09T08:07:35.026Z,163.12
2022-10-09T08:08:32.876Z,163.12
2022-10-09T08:09:32.760Z,163.12
2022-10-09T08:10:32.678Z,163.12
2022-10-09T08:11:32.681Z,163.12
2022-10-09T08:12:32.628Z,163.12
2022-10-09T08:13:33.657Z,163.12
2022-10-09T08:14:32.703Z,163.12
2022-10-09T08:15:32.815Z,163.12
2022-10-09T08:16:32.793Z,163.12
2022-10-09T08:17:33.552Z,163.12
2022-10-09T08:18:33.491Z,163.12
2022-10-09T08:19:32.599Z,163.12
2022-10-09T08:20:32.535Z,163.12
2022-10-09T08:21:32.653Z,163.12
2022-10-09T08:22:32.765Z,163.12
2022-10-09T08:23:32.629Z,163.12
2022-10-09T08:24:32.555Z,163.12
2022-10-09T08:25:32.508Z,163.12
2022-10-09T08:26:32.534Z,163.12
2022-10-09T08:27:32.551Z,163.12
2022-10-09T08:28:32.770Z,163.12
2022-10-09T08:29:35.532Z,168.75
2022-10-09T08:30:32.786Z,168.75
2022-10-09T08:31:32.544Z,168.75
2022-10-09T08:32:32.473Z,168.75
2022-10-09T08:33:32.575Z,168.75
2022-10-09T08:34:32.458Z,168.75
2022-10-09T08:35:34.531Z,168.75
2022-10-09T08:36:32.469Z,168.75
2022-10-09T08:37:32.395Z,168.75
2022-10-09T08:38:46.651Z,168.75
2022-10-09T08:39:32.442Z,168.75
2022-10-09T08:40:32.482Z,168.75
2022-10-09T08:41:32.510Z,168.75
2022-10-09T08:42:32.448Z,174.38
2022-10-09T08:43:32.421Z,174.38
2022-10-09T08:44:32.491Z,174.38
2022-10-09T08:45:32.440Z,174.38
2022-10-09T08:46:32.490Z,174.38
2022-10-09T08:47:32.453Z,174.38
2022-10-09T08:48:32.388Z,174.38
2022-10-09T08:49:32.278Z,174.38
2022-10-09T08:50:32.377Z,174.38
2022-10-09T08:51:32.432Z,180.00
2022-10-09T08:52:32.633Z,180.00
2022-10-09T08:53:32.314Z,180.00
2022-10-09T08:54:32.320Z,180.00
2022-10-09T08:55:32.264Z,180.00
2022-10-09T08:56:32.240Z,180.00
2022-10-09T08:57:32.200Z,180.00
2022-10-09T08:58:32.150Z,180.00
2022-10-09T08:59:32.098Z,185.62
2022-10-09T09:00:32.116Z,185.62
2022-10-09T09:01:32.207Z,185.62
2022-10-09T09:02:32.160Z,185.62
2022-10-09T09:03:32.160Z,185.62
2022-10-09T09:04:32.083Z,185.62
2022-10-09T09:05:32.049Z,185.62
2022-10-09T09:06:32.051Z,185.62
2022-10-09T09:07:32.001Z,185.62
2022-10-09T09:08:32.008Z,185.62
2022-10-09T09:09:32.797Z,185.62
2022-10-09T09:10:32.230Z,185.62
2022-10-09T09:11:31.987Z,185.62
2022-10-09T09:12:31.967Z,185.62
2022-10-09T09:13:31.964Z,185.62
2022-10-09T09:14:31.957Z,191.25
2022-10-09T09:15:32.220Z,191.25
2022-10-09T09:16:31.974Z,191.25
2022-10-09T09:17:31.886Z,185.62
2022-10-09T09:18:32.095Z,185.62
2022-10-09T09:19:32.026Z,185.62
2022-10-09T09:20:32.082Z,185.62
2022-10-09T09:21:32.087Z,185.62
2022-10-09T09:22:32.110Z,191.25
2022-10-09T09:23:32.262Z,191.25
2022-10-09T09:24:32.100Z,191.25
2022-10-09T09:25:31.796Z,191.25
2022-10-09T09:26:31.997Z,191.25
2022-10-09T09:27:32.022Z,191.25
2022-10-09T09:28:31.996Z,191.25
2022-10-09T09:29:31.847Z,191.25
2022-10-09T09:30:31.744Z,191.25
2022-10-09T09:31:32.386Z,196.88
2022-10-09T09:32:31.886Z,196.88
2022-10-09T09:33:36.149Z,196.88
2022-10-09T09:34:32.065Z,196.88
2022-10-09T09:35:31.983Z,196.88
2022-10-09T09:36:32.589Z,202.50
2022-10-09T09:37:31.718Z,202.50
2022-10-09T09:38:31.892Z,202.50
2022-10-09T09:40:36.604Z,202.50
2022-10-09T09:41:31.639Z,202.50
2022-10-09T09:42:31.775Z,208.12
2022-10-09T09:43:31.774Z,208.12
2022-10-09T09:44:31.874Z,208.12
2022-10-09T09:45:32.755Z,213.75
2022-10-09T09:46:31.908Z,213.75
2022-10-09T09:47:31.609Z,213.75
2022-10-09T09:48:31.610Z,213.75
2022-10-09T09:49:31.574Z,213.75
2022-10-09T09:50:48.183Z,213.75
2022-10-09T09:51:31.912Z,213.75
2022-10-09T09:52:32.972Z,219.38
2022-10-09T09:53:31.725Z,219.38
2022-10-09T09:54:31.778Z,219.38
2022-10-09T09:55:31.478Z,219.38
2022-10-09T09:56:47.716Z,219.38
2022-10-09T09:57:31.621Z,219.38
2022-10-09T09:58:31.540Z,225.00
2022-10-09T09:59:31.460Z,225.00
2022-10-09T10:00:31.530Z,225.00
2022-10-09T10:01:31.494Z,225.00
2022-10-09T10:02:31.648Z,225.00
2022-10-09T10:03:31.511Z,230.62
2022-10-09T10:04:32.072Z,230.62
2022-10-09T10:05:31.395Z,230.62
2022-10-09T10:06:31.361Z,230.62
2022-10-09T10:07:32.141Z,236.25
2022-10-09T10:08:31.364Z,236.25
2022-10-09T10:09:33.560Z,236.25
2022-10-09T10:10:31.394Z,236.25
2022-10-09T10:11:33.006Z,236.25
2022-10-09T10:12:31.329Z,236.25
2022-10-09T10:13:31.380Z,236.25
2022-10-09T10:14:31.364Z,236.25
2022-10-09T10:15:32.066Z,236.25
2022-10-09T10:16:31.382Z,236.25
2022-10-09T10:17:31.283Z,241.88
2022-10-09T10:18:31.231Z,241.88
2022-10-09T10:19:31.298Z,241.88
2022-10-09T10:20:31.314Z,241.88
2022-10-09T10:21:31.282Z,247.50
2022-10-09T10:22:31.228Z,247.50
2022-10-09T10:23:31.314Z,247.50
2022-10-09T10:24:31.158Z,247.50
2022-10-09T10:25:31.263Z,247.50
2022-10-09T10:26:31.221Z,247.50
2022-10-09T10:27:31.192Z,247.50
2022-10-09T10:28:31.157Z,241.88
2022-10-09T10:29:31.092Z,247.50
2022-10-09T10:30:31.189Z,247.50
2022-10-09T10:31:31.238Z,247.50
2022-10-09T10:32:31.115Z,247.50
2022-10-09T10:33:31.133Z,253.12
2022-10-09T10:34:31.210Z,253.12
2022-10-09T10:35:31.288Z,253.12
2022-10-09T10:36:31.109Z,253.12
2022-10-09T10:37:31.281Z,253.12
2022-10-09T10:38:31.186Z,253.12
2022-10-09T10:39:31.166Z,253.12
2022-10-09T10:40:31.670Z,258.75
2022-10-09T10:41:31.039Z,258.75
2022-10-09T10:42:31.618Z,258.75
2022-10-09T10:43:31.709Z,258.75
2022-10-09T10:44:32.069Z,258.75
2022-10-09T10:45:31.996Z,258.75
2022-10-09T10:46:31.846Z,258.75
2022-10-09T10:47:30.987Z,264.38
2022-10-09T10:48:30.964Z,264.38
2022-10-09T10:49:33.786Z,264.38
2022-10-09T10:50:30.896Z,264.38
2022-10-09T10:51:30.926Z,264.38
2022-10-09T10:52:30.877Z,270.00
2022-10-09T10:53:31.341Z,270.00
2022-10-09T10:54:30.926Z,264.38
2022-10-09T10:55:30.874Z,264.38
2022-10-09T10:56:30.839Z,270.00
2022-10-09T10:57:30.995Z,270.00
2022-10-09T10:58:30.823Z,270.00
2022-10-09T10:59:31.092Z,270.00
2022-10-09T11:00:30.922Z,270.00
2022-10-09T11:01:30.951Z,270.00
2022-10-09T11:02:32.684Z,270.00
2022-10-09T11:03:30.903Z,270.00
2022-10-09T11:04:31.676Z,270.00
2022-10-09T11:05:30.773Z,270.00
2022-10-09T11:06:30.725Z,270.00
2022-10-09T11:07:30.706Z,270.00
2022-10-09T11:08:30.986Z,270.00
2022-10-09T11:09:30.814Z,270.00
2022-10-09T11:10:31.142Z,270.00
2022-10-09T11:11:30.712Z,270.00
2022-10-09T11:12:57.683Z,275.62
2022-10-09T11:13:30.625Z,275.62
2022-10-09T11:14:30.640Z,270.00
2022-10-09T11:15:30.699Z,270.00
2022-10-09T11:16:30.571Z,270.00
2022-10-09T11:17:30.621Z,270.00
2022-10-09T11:18:30.673Z,270.00
2022-10-09T11:19:30.722Z,270.00
2022-10-09T11:20:30.635Z,270.00
2022-10-09T11:21:30.566Z,270.00
2022-10-09T11:22:30.558Z,270.00
2022-10-09T11:23:30.586Z,270.00
2022-10-09T11:24:30.582Z,270.00
2022-10-09T11:25:30.618Z,270.00
2022-10-09T11:26:30.433Z,270.00
2022-10-09T11:27:30.494Z,275.62
2022-10-09T11:28:30.560Z,270.00
2022-10-09T11:29:30.616Z,270.00
2022-10-09T11:30:30.503Z,270.00
2022-10-09T11:31:30.665Z,275.62
2022-10-09T11:32:30.462Z,275.62
2022-10-09T11:33:30.417Z,275.62
2022-10-09T11:34:30.463Z,275.62
2022-10-09T11:35:30.431Z,275.62
2022-10-09T11:36:30.410Z,275.62
2022-10-09T11:37:30.482Z,275.62
2022-10-09T11:38:30.361Z,281.25
2022-10-09T11:39:30.606Z,281.25
2022-10-09T11:40:30.568Z,281.25
2022-10-09T11:41:30.472Z,281.25
2022-10-09T11:42:30.324Z,286.88
2022-10-09T11:43:31.095Z,286.88
2022-10-09T11:44:30.259Z,286.88
2022-10-09T11:45:30.393Z,286.88
2022-10-09T11:46:30.305Z,292.50
2022-10-09T11:47:30.429Z,292.50
2022-10-09T11:48:30.192Z,292.50
2022-10-09T11:49:30.452Z,292.50
2022-10-09T11:50:30.214Z,292.50
2022-10-09T11:51:30.197Z,292.50
2022-10-09T11:52:30.228Z,298.12
2022-10-09T11:53:30.265Z,298.12
2022-10-09T11:54:30.195Z,303.75
2022-10-09T11:55:30.281Z,303.75
2022-10-09T11:56:30.134Z,303.75
2022-10-09T11:57:30.257Z,309.38
2022-10-09T11:58:30.217Z,303.75
2022-10-09T11:59:30.195Z,315.00
2022-10-09T12:00:30.291Z,320.62
2022-10-09T12:01:30.325Z,320.62
2022-10-09T12:02:30.223Z,320.62
2022-10-09T12:03:30.176Z,320.62
2022-10-09T12:04:53.837Z,320.62
2022-10-09T12:05:30.051Z,320.62
2022-10-09T12:06:30.121Z,320.62
2022-10-09T12:07:30.064Z,320.62
2022-10-09T12:08:30.081Z,320.62
2022-10-09T12:09:30.286Z,320.62
2022-10-09T12:10:30.082Z,320.62
2022-10-09T12:11:30.072Z,320.62
2022-10-09T12:12:30.002Z,326.25
2022-10-09T12:13:30.009Z,331.88
2022-10-09T12:14:30.036Z,331.88
2022-10-09T12:15:30.046Z,337.50
2022-10-09T12:16:30.544Z,343.12
2022-10-09T12:17:30.040Z,343.12
2022-10-09T12:18:29.987Z,348.75
2022-10-09T12:19:29.875Z,365.62
2022-10-09T12:20:29.898Z,348.75
2022-10-09T12:21:30.119Z,354.38
2022-10-09T12:22:29.994Z,371.25
2022-10-09T12:23:30.284Z,399.38
2022-10-09T12:24:29.798Z,410.62
2022-10-09T12:25:29.777Z,1051.88
2022-10-09T12:26:29.903Z,1766.25
2022-10-09T12:27:30.469Z,1850.62
2022-10-09T12:28:36.039Z,1890.00
2022-10-09T12:29:29.804Z,1912.50
2022-10-09T12:30:29.904Z,1929.38
2022-10-09T12:31:29.825Z,1873.12
2022-10-09T12:32:29.730Z,1828.12
2022-10-09T12:33:29.752Z,1912.50
2022-10-09T12:34:29.822Z,1963.12
2022-10-09T12:35:29.705Z,2013.75
2022-10-09T12:36:29.753Z,1980.00
2022-10-09T12:37:29.770Z,1968.75
2022-10-09T12:38:29.758Z,1968.75
2022-10-09T12:39:29.828Z,1985.62
2022-10-09T12:40:29.721Z,2008.12
2022-10-09T12:41:29.670Z,2002.50
2022-10-09T12:43:29.795Z,1895.62
2022-10-09T12:44:29.793Z,686.25
2022-10-09T12:45:29.716Z,1738.12
2022-10-09T12:46:29.665Z,1580.62
2022-10-09T12:47:29.639Z,2565.00
2022-10-09T12:48:29.739Z,1946.25
2022-10-09T12:49:29.598Z,1974.38
2022-10-09T12:50:29.597Z,1985.62
2022-10-09T12:51:29.639Z,1918.12
2022-10-09T12:52:30.113Z,1878.75